Time;durP1;ratioP1;P1;durP2;ratioP2;P2;SDS_P1;SDS_P2;PMS_P1;PMS_P2;Temp;Humidity;BMP_temperature;BMP_pressure;BME280_temperature;BME280_humidity;BME280_pressure;Samples;Min_cycle;Max_cycle;Signal;HPM_P1;HPM_P2
2022/05/25 00:00:20;;;;;;;0.20;0.20;;;;;;;19.76;32.89;99752.56;5037031;28;20415;-74
2022/05/25 00:02:45;;;;;;;0.20;0.20;;;;;;;19.89;33.39;99748.66;5036792;28;20039;-73
2022/05/25 00:05:13;;;;;;;0.20;0.20;;;;;;;19.81;33.33;99754.88;5036809;28;20367;-74
2022/05/25 00:07:39;;;;;;;0.10;0.10;;;;;;;19.70;33.75;99760.75;5036907;28;20121;-74
2022/05/25 00:10:06;;;;;;;0.20;0.20;;;;;;;19.70;33.68;99745.84;5037293;28;20485;-74
2022/05/25 00:12:32;;;;;;;0.10;0.10;;;;;;;19.73;33.68;99748.63;5020580;28;20061;-74
2022/05/25 00:14:58;;;;;;;0.10;0.10;;;;;;;19.73;33.66;99753.47;5036930;28;20025;-74
2022/05/25 00:17:23;;;;;;;0.10;0.10;;;;;;;19.61;34.04;99752.91;5036645;28;20369;-74
2022/05/25 00:20:01;;;;;;;0.10;0.10;;;;;;;19.56;34.46;99746.94;5036774;28;20162;-75
2022/05/25 00:22:40;;;;;;;0.20;0.20;;;;;;;19.62;34.44;99751.66;5036637;28;20033;-74
2022/05/25 00:25:07;;;;;;;0.20;0.20;;;;;;;19.54;33.69;99752.19;5037359;28;20028;-74
2022/05/25 00:27:33;;;;;;;0.20;0.20;;;;;;;19.53;33.58;99750.63;5036111;28;20118;-74
2022/05/25 00:30:00;;;;;;;0.10;0.10;;;;;;;19.56;33.71;99755.41;5036796;28;20476;-74
2022/05/25 00:32:25;;;;;;;0.10;0.10;;;;;;;19.52;34.04;99755.47;5035900;28;20087;-75
2022/05/25 00:34:53;;;;;;;0.10;0.10;;;;;;;19.55;33.76;99748.97;5036376;28;20029;-75
2022/05/25 00:37:19;;;;;;;0.10;0.10;;;;;;;19.56;33.22;99747.72;5036772;28;20040;-75
2022/05/25 00:39:45;;;;;;;0.10;0.10;;;;;;;19.44;33.43;99750.38;5036938;28;20391;-74
2022/05/25 00:42:10;;;;;;;0.10;0.10;;;;;;;19.41;33.51;99742.81;5036264;28;20059;-74
2022/05/25 00:44:36;;;;;;;0.10;0.10;;;;;;;19.37;33.07;99742.88;5036178;28;20025;-74
2022/05/25 00:47:02;;;;;;;0.20;0.20;;;;;;;19.39;32.74;99746.06;5036541;28;20036;-74
2022/05/25 00:49:34;;;;;;;0.10;0.10;;;;;;;19.40;32.38;99744.84;5036787;28;20028;-74
2022/05/25 00:52:05;;;;;;;0.10;0.10;;;;;;;19.38;33.04;99745.25;5036715;28;20029;-74
2022/05/25 00:54:45;;;;;;;0.10;0.10;;;;;;;19.23;32.89;99749.59;5020447;28;20423;-74
2022/05/25 00:57:21;;;;;;;0.10;0.10;;;;;;;19.10;32.72;99752.25;5032913;28;20514;-75
2022/05/25 00:59:55;;;;;;;0.10;0.10;;;;;;;19.06;32.70;99762.00;5036055;28;20029;-74
2022/05/25 01:02:21;;;;;;;0.10;0.10;;;;;;;19.07;32.63;99758.75;5035987;28;20064;-74
2022/05/25 01:04:47;;;;;;;0.10;0.10;;;;;;;18.94;32.03;99762.63;5035865;28;20021;-74
2022/05/25 01:07:19;;;;;;;0.10;0.10;;;;;;;18.94;32.19;99745.72;5036186;28;20095;-75
2022/05/25 01:10:12;;;;;;;0.10;0.10;;;;;;;18.70;32.62;99695.00;5035877;28;20036;-74
2022/05/25 01:13:05;;;;;;;0.10;0.10;;;;;;;18.98;32.69;99743.63;5035840;28;20033;-74
2022/05/25 01:16:01;;;;;;;0.10;0.10;;;;;;;18.92;32.97;99745.34;5036630;28;20037;-74
2022/05/25 01:18:48;;;;;;;0.10;0.10;;;;;;;18.72;32.68;99714.31;5036232;28;20274;-75
2022/05/25 01:21:41;;;;;;;0.20;0.20;;;;;;;18.89;32.59;99734.94;5036114;28;20035;-74
2022/05/25 01:24:15;;;;;;;0.10;0.10;;;;;;;18.98;33.30;99740.81;5035663;28;20025;-74
2022/05/25 01:26:52;;;;;;;0.20;0.20;;;;;;;18.92;34.46;99734.09;5035447;28;20084;-74
2022/05/25 01:29:43;;;;;;;0.17;0.17;;;;;;;18.91;34.81;99743.75;5035609;28;20044;-74
2022/05/25 01:32:18;;;;;;;0.15;0.15;;;;;;;18.83;34.56;99737.44;5036397;28;20122;-74
2022/05/25 01:35:04;;;;;;;0.10;0.10;;;;;;;18.80;33.94;99736.31;5035858;28;20360;-74
2022/05/25 01:38:17;;;;;;;0.20;0.20;;;;;;;18.81;33.22;99729.44;5036030;28;20388;-75
2022/05/25 01:41:03;;;;;;;0.10;0.10;;;;;;;18.97;32.90;99728.75;4937868;29;20028;-74
2022/05/25 01:43:43;;;;;;;0.20;0.20;;;;;;;19.02;32.32;99728.25;4938075;28;20055;-74
2022/05/25 01:46:34;;;;;;;0.20;0.20;;;;;;;18.98;32.37;99727.50;5033572;28;20043;-75
2022/05/25 01:49:05;;;;;;;0.10;0.10;;;;;;;18.95;32.00;99711.44;5039171;28;20029;-74
2022/05/25 01:51:40;;;;;;;0.20;0.20;;;;;;;18.96;31.95;99723.50;5039815;28;20032;-74
2022/05/25 01:54:11;;;;;;;0.10;0.10;;;;;;;18.92;32.16;99712.31;5040048;28;20352;-74
2022/05/25 01:56:40;;;;;;;0.10;0.10;;;;;;;18.96;31.91;99712.25;5039441;28;20031;-75
2022/05/25 01:59:09;;;;;;;0.10;0.10;;;;;;;19.00;32.04;99707.34;5039509;28;20059;-75
2022/05/25 02:01:35;;;;;;;0.10;0.10;;;;;;;18.98;31.60;99712.63;5040065;28;20364;-74
2022/05/25 02:07:30;;;;;;;0.10;0.10;;;;;;;19.16;31.28;99715.88;5057510;28;20075;-75
2022/05/25 02:10:21;;;;;;;0.20;0.20;;;;;;;19.15;31.27;99710.69;5057294;28;20057;-75
2022/05/25 02:13:08;;;;;;;0.17;0.17;;;;;;;19.05;31.87;99709.66;5039728;28;20116;-74
2022/05/25 02:15:52;;;;;;;0.10;0.10;;;;;;;19.07;31.35;99704.41;5057253;28;20057;-75
2022/05/25 02:18:34;;;;;;;0.10;0.10;;;;;;;19.08;31.80;99700.34;5039275;28;20032;-74
2022/05/25 02:21:14;;;;;;;0.10;0.10;;;;;;;18.97;31.46;99702.56;5038749;28;20025;-75
2022/05/25 02:23:56;;;;;;;0.10;0.10;;;;;;;19.04;31.67;99702.44;5039276;28;20029;-75
2022/05/25 02:26:35;;;;;;;0.15;0.15;;;;;;;18.80;31.84;99677.13;5035695;28;20512;-74
2022/05/25 02:29:03;;;;;;;0.10;0.10;;;;;;;18.93;31.46;99679.28;5035747;28;20472;-74
2022/05/25 02:31:38;;;;;;;0.20;0.20;;;;;;;19.10;31.41;99695.06;5036090;28;20116;-75
2022/05/25 02:34:09;;;;;;;0.10;0.10;;;;;;;18.98;31.92;99696.50;5035982;28;20124;-74
2022/05/25 02:36:37;;;;;;;0.10;0.10;;;;;;;18.87;31.89;99693.09;5035308;28;20041;-75
2022/05/25 02:39:07;;;;;;;0.10;0.10;;;;;;;18.93;32.08;99696.22;5035985;28;20439;-75
2022/05/25 02:41:36;;;;;;;0.10;0.10;;;;;;;18.89;32.08;99689.84;5035649;28;20025;-73
2022/05/25 02:44:03;;;;;;;0.10;0.10;;;;;;;18.95;32.06;99688.09;5035420;28;20026;-74
2022/05/25 02:46:30;;;;;;;0.10;0.10;;;;;;;18.94;32.12;99680.88;5035593;28;20083;-74
2022/05/25 02:48:56;;;;;;;0.10;0.10;;;;;;;19.01;32.49;99675.88;5034953;28;20025;-75
2022/05/25 02:51:21;;;;;;;0.20;0.20;;;;;;;19.01;32.18;99677.91;5035485;28;20040;-74
2022/05/25 02:53:47;;;;;;;0.10;0.10;;;;;;;18.93;32.24;99684.94;5035017;28;20392;-74
2022/05/25 02:56:13;;;;;;;0.20;0.20;;;;;;;19.01;32.00;99683.56;5034793;28;20124;-74
2022/05/25 02:58:38;;;;;;;0.17;0.17;;;;;;;18.96;31.70;99689.69;5034799;28;20472;-75
2022/05/25 03:01:05;;;;;;;0.10;0.10;;;;;;;18.96;31.73;99675.59;5035608;28;20033;-75
2022/05/25 03:03:35;;;;;;;0.10;0.10;;;;;;;19.00;31.29;99679.94;5034814;28;20033;-74
2022/05/25 03:06:02;;;;;;;0.10;0.10;;;;;;;19.02;30.95;99676.72;5035240;28;20029;-74
2022/05/25 03:08:27;;;;;;;0.10;0.10;;;;;;;19.02;31.03;99671.06;5034685;28;20113;-74
2022/05/25 03:10:53;;;;;;;0.10;0.10;;;;;;;19.08;30.81;99675.75;5035050;28;20116;-74
2022/05/25 03:13:19;;;;;;;0.10;0.10;;;;;;;19.13;30.74;99665.22;5035097;28;20461;-75
2022/05/25 03:15:44;;;;;;;0.10;0.10;;;;;;;19.10;30.92;99666.88;5034639;28;20052;-75
2022/05/25 03:18:11;;;;;;;0.10;0.10;;;;;;;19.16;30.35;99659.47;5034684;28;20033;-75
2022/05/25 03:20:36;;;;;;;0.10;0.10;;;;;;;19.10;30.48;99658.41;5034877;28;20044;-74
2022/05/25 03:23:02;;;;;;;0.10;0.10;;;;;;;19.16;30.33;99655.88;5034488;28;20037;-75
2022/05/25 03:25:28;;;;;;;0.13;0.13;;;;;;;19.23;30.16;99665.00;5035855;28;20042;-74
2022/05/25 03:27:53;;;;;;;0.10;0.10;;;;;;;19.27;29.76;99660.06;5038091;28;20075;-75
2022/05/25 03:30:20;;;;;;;0.10;0.10;;;;;;;19.27;30.05;99664.91;5037672;28;20472;-75
2022/05/25 03:32:46;;;;;;;0.10;0.10;;;;;;;19.33;30.05;99672.44;5037905;28;20116;-75
2022/05/25 03:35:13;;;;;;;0.10;0.10;;;;;;;19.32;30.21;99670.03;5055803;28;20538;-74
2022/05/25 03:37:39;;;;;;;0.10;0.10;;;;;;;19.38;30.83;99685.22;5021475;28;20456;-75
2022/05/25 03:40:10;;;;;;;0.10;0.10;;;;;;;19.45;30.29;99687.13;5037875;28;20032;-75
2022/05/25 03:42:38;;;;;;;0.10;0.10;;;;;;;19.52;30.45;99675.66;5037673;28;20025;-74
2022/05/25 03:45:04;;;;;;;0.10;0.10;;;;;;;19.56;30.27;99679.22;5037974;28;20374;-75
2022/05/25 03:47:32;;;;;;;0.10;0.10;;;;;;;19.55;29.37;99683.28;5037376;28;20029;-75
2022/05/25 03:49:58;;;;;;;0.15;0.15;;;;;;;19.64;28.91;99666.56;5037341;28;20039;-74
2022/05/25 03:52:25;;;;;;;0.10;0.10;;;;;;;19.73;28.50;99669.59;5037303;28;20028;-74
2022/05/25 03:54:51;;;;;;;0.10;0.10;;;;;;;19.87;28.89;99680.56;5037849;28;20039;-74
2022/05/25 03:57:17;;;;;;;0.10;0.10;;;;;;;20.01;29.01;99678.63;5037163;28;20025;-74
2022/05/25 03:59:45;;;;;;;0.10;0.10;;;;;;;20.10;28.75;99665.47;5037132;28;20115;-74
2022/05/25 04:02:11;;;;;;;0.20;0.20;;;;;;;20.25;28.66;99654.63;5037031;28;20087;-75
2022/05/25 04:04:37;;;;;;;0.10;0.10;;;;;;;20.38;28.61;99658.31;5037028;28;20053;-75
2022/05/25 04:07:03;;;;;;;0.10;0.10;;;;;;;20.58;28.01;99657.47;5036396;28;20068;-75
2022/05/25 04:09:29;;;;;;;0.10;0.10;;;;;;;20.88;27.97;99657.06;5020322;28;20061;-74
2022/05/25 04:11:55;;;;;;;0.10;0.10;;;;;;;21.21;27.55;99659.78;5036581;28;20043;-75
2022/05/25 04:14:21;;;;;;;0.10;0.10;;;;;;;21.49;27.21;99666.66;5036821;28;20040;-74
2022/05/25 04:16:47;;;;;;;0.10;0.10;;;;;;;21.88;26.71;99679.59;5036830;28;20036;-75
2022/05/25 04:19:13;;;;;;;0.10;0.10;;;;;;;22.18;26.15;99668.97;5036626;28;20075;-75
2022/05/25 04:21:39;;;;;;;0.10;0.10;;;;;;;22.42;26.04;99670.16;5036965;28;20472;-75
2022/05/25 04:24:06;;;;;;;0.10;0.10;;;;;;;22.64;25.74;99655.28;5036974;28;20436;-75
2022/05/25 04:26:32;;;;;;;0.10;0.10;;;;;;;22.86;25.54;99641.94;5033035;28;20049;-75
2022/05/25 04:29:00;;;;;;;0.10;0.10;;;;;;;22.90;25.67;99625.59;5033309;28;20029;-75
2022/05/25 04:31:25;;;;;;;0.10;0.10;;;;;;;;;;5033599;28;20040;-75
2022/05/25 04:33:52;;;;;;;0.10;0.10;;;;;;;23.71;26.39;99665.59;5034936;28;20073;-75
2022/05/25 04:36:19;;;;;;;0.10;0.10;;;;;;;24.01;26.49;99669.66;5033021;28;20083;-75
2022/05/25 04:38:44;;;;;;;0.10;0.10;;;;;;;24.25;26.08;99667.06;5033794;28;20025;-75
2022/05/25 04:41:10;;;;;;;0.10;0.10;;;;;;;24.41;25.48;99655.44;5033631;28;20399;-75
2022/05/25 04:43:36;;;;;;;0.10;0.10;;;;;;;24.51;25.51;99668.41;5033451;28;20425;-74
2022/05/25 04:46:08;;;;;;;0.10;0.10;;;;;;;24.20;25.34;99674.16;5033469;28;20029;-74
2022/05/25 04:48:34;;;;;;;0.10;0.10;;;;;;;23.87;25.26;99668.19;5032931;28;20029;-74
2022/05/25 04:50:59;;;;;;;0.10;0.10;;;;;;;23.86;26.96;99672.25;5016609;28;20034;-75
2022/05/25 04:53:25;;;;;;;0.10;0.10;;;;;;;23.72;27.61;99667.16;5032625;28;20087;-75
2022/05/25 04:58:37;;;;;;;0.10;0.10;;;;;;;23.27;28.96;99645.72;5034228;28;20124;-73
2022/05/25 05:01:05;;;;;;;0.10;0.10;;;;;;;23.31;30.30;99666.25;5032914;28;20127;-75
2022/05/25 05:03:31;;;;;;;0.10;0.10;;;;;;;23.47;30.85;99668.09;5016223;28;20567;-76
2022/05/25 05:05:58;;;;;;;0.10;0.10;;;;;;;23.83;30.84;99673.22;5032671;28;20061;-78
2022/05/25 05:08:24;;;;;;;0.10;0.10;;;;;;;24.61;29.91;99674.91;5032590;28;20089;-76
2022/05/25 05:10:51;;;;;;;0.10;0.10;;;;;;;25.18;27.95;99683.03;5032647;28;20030;-76
2022/05/25 05:13:17;;;;;;;0.10;0.10;;;;;;;25.47;27.72;99683.31;5032615;28;20087;-75
2022/05/25 05:15:45;;;;;;;0.10;0.10;;;;;;;26.26;27.12;99679.56;5032911;28;20068;-75
2022/05/25 05:18:12;;;;;;;0.10;0.10;;;;;;;26.90;26.39;99667.78;5032285;28;20061;-75
2022/05/25 05:20:38;;;;;;;0.10;0.10;;;;;;;27.50;26.20;99686.63;5033028;28;20029;-76
2022/05/25 05:23:05;;;;;;;0.10;0.10;;;;;;;27.76;26.16;99681.13;5034112;28;20104;-75
2022/05/25 05:25:31;;;;;;;0.10;0.10;;;;;;;27.61;26.55;99686.81;5033547;28;20124;-75
2022/05/25 05:28:09;;;;;;;0.10;0.10;;;;;;;27.65;26.84;99673.13;5035703;28;20021;-76
2022/05/25 05:30:45;;;;;;;0.10;0.10;;;;;;;27.72;27.64;99682.63;5035608;28;20060;-75
2022/05/25 05:33:11;;;;;;;0.13;0.13;;;;;;;27.84;27.64;99695.81;5036109;28;20033;-77
2022/05/25 05:35:36;;;;;;;0.13;0.13;;;;;;;28.10;27.77;99708.19;5019109;28;20033;-75
2022/05/25 05:38:02;;;;;;;0.10;0.10;;;;;;;27.33;29.06;99720.59;5035189;28;20075;-75
2022/05/25 05:40:29;;;;;;;0.10;0.10;;;;;;;26.29;28.55;99725.03;5035284;28;20033;-76
2022/05/25 05:42:55;;;;;;;0.10;0.10;;;;;;;26.35;28.02;99725.94;5035168;28;20087;-75
2022/05/25 05:45:27;;;;;;;0.10;0.10;;;;;;;26.98;27.89;99734.63;5035554;28;20060;-75
2022/05/25 05:48:03;;;;;;;0.10;0.10;;;;;;;27.48;27.33;99743.44;5035708;28;20048;-75
2022/05/25 05:50:30;;;;;;;0.10;0.10;;;;;;;28.20;26.34;99746.84;5035036;28;20278;-74
2022/05/25 05:52:56;;;;;;;0.20;0.20;;;;;;;28.10;26.67;99748.25;5035078;28;20467;-73
2022/05/25 05:55:23;;;;;;;0.10;0.10;;;;;;;28.06;26.72;99750.50;5035353;28;20025;-74
2022/05/25 05:57:49;;;;;;;0.10;0.10;;;;;;;27.84;27.62;99764.41;5053323;28;20028;-78
2022/05/25 06:00:16;;;;;;;0.10;0.10;;;;;;;28.31;27.46;99759.75;5035004;28;20029;-73
2022/05/25 06:02:43;;;;;;;0.10;0.10;;;;;;;28.86;26.64;99768.41;5031882;28;20033;-74
2022/05/25 06:05:09;;;;;;;0.10;0.10;;;;;;;29.17;25.54;99782.13;5035717;28;20029;-76
2022/05/25 06:07:35;;;;;;;0.10;0.10;;;;;;;29.46;24.74;99784.06;5037774;28;20136;-74
2022/05/25 06:10:03;;;;;;;0.10;0.10;;;;;;;29.58;26.35;99798.56;5035216;28;20087;-74
2022/05/25 06:12:30;;;;;;;0.10;0.10;;;;;;;29.30;27.08;99795.31;5035660;28;20027;-77
2022/05/25 06:14:56;;;;;;;0.10;0.10;;;;;;;29.19;27.44;99795.94;5035169;28;20388;-75
2022/05/25 06:20:08;;;;;;;0.10;0.10;;;;;;;29.20;26.84;99815.50;5053240;28;20040;-75
2022/05/25 06:22:34;;;;;;;0.10;0.10;;;;;;;30.10;25.58;99816.56;5034628;28;20068;-74
2022/05/25 06:25:00;;;;;;;0.10;0.10;;;;;;;30.14;24.68;99827.81;5034771;28;20052;-75
2022/05/25 06:27:26;;;;;;;0.10;0.10;;;;;;;30.74;23.50;99820.28;5034213;28;20132;-75
2022/05/25 06:29:53;;;;;;;0.10;0.10;;;;;;;30.67;22.66;99815.75;5034756;28;20579;-76
2022/05/25 06:32:27;;;;;;;0.10;0.10;;;;;;;30.12;23.39;99818.94;5037872;28;20029;-75
2022/05/25 06:34:52;;;;;;;0.10;0.10;;;;;;;30.63;23.10;99818.09;5038377;28;20055;-75
2022/05/25 06:37:23;;;;;;;0.10;0.10;;;;;;;30.68;23.25;99834.56;5038831;28;20060;-74
2022/05/25 06:39:49;;;;;;;0.10;0.10;;;;;;;31.28;23.17;99826.88;5056257;28;20041;-74
2022/05/25 06:42:15;;;;;;;0.10;0.10;;;;;;;31.38;22.84;99830.34;5038398;28;20377;-74
2022/05/25 06:44:42;;;;;;;0.10;0.10;;;;;;;31.88;24.64;99837.59;5038132;28;20059;-74
2022/05/25 06:47:07;;;;;;;0.10;0.10;;;;;;;31.05;26.08;99825.16;5038104;28;20033;-74
2022/05/25 06:49:34;;;;;;;0.10;0.10;;;;;;;31.41;25.41;99829.28;5037875;28;20051;-74
2022/05/25 06:52:00;;;;;;;0.10;0.10;;;;;;;30.93;25.37;99843.63;5038529;28;20033;-73
2022/05/25 06:54:25;;;;;;;0.10;0.10;;;;;;;31.55;24.44;99841.91;5037865;28;20025;-74
2022/05/25 06:56:51;;;;;;;0.10;0.10;;;;;;;31.78;23.73;99840.66;5037814;28;20078;-74
2022/05/25 06:59:17;;;;;;;0.10;0.10;;;;;;;31.87;25.47;99856.16;5038128;28;20025;-75
2022/05/25 07:01:43;;;;;;;0.10;0.10;;;;;;;31.69;26.23;99843.75;5037618;28;20064;-74
2022/05/25 07:04:09;;;;;;;0.10;0.10;;;;;;;31.40;26.60;99844.19;5037915;28;20036;-75
2022/05/25 07:06:37;;;;;;;0.10;0.10;;;;;;;31.61;24.96;99851.31;5038317;28;20029;-76
2022/05/25 07:09:04;;;;;;;0.10;0.10;;;;;;;31.68;24.67;99853.69;5037855;28;20032;-75
2022/05/25 07:11:30;;;;;;;0.10;0.10;;;;;;;32.64;22.52;99848.94;5037871;28;20491;-75
2022/05/25 07:13:57;;;;;;;0.10;0.10;;;;;;;33.40;22.30;99861.38;5038275;28;20031;-74
2022/05/25 07:16:23;;;;;;;0.10;0.10;;;;;;;33.33;21.93;99872.13;5037541;28;20108;-77
2022/05/25 07:18:49;;;;;;;0.10;0.10;;;;;;;34.10;20.60;99862.94;5037864;28;20129;-76
2022/05/25 07:21:18;;;;;;;0.10;0.10;;;;;;;32.64;20.32;99871.97;5038020;28;20033;-76
2022/05/25 07:23:46;;;;;;;0.10;0.10;;;;;;;32.99;21.02;99882.19;5020979;28;20057;-76
2022/05/25 07:26:12;;;;;;;0.10;0.10;;;;;;;32.25;22.80;99884.22;5037665;28;20126;-74
2022/05/25 07:28:38;;;;;;;0.10;0.10;;;;;;;32.20;23.15;99890.75;5038286;28;20383;-75
2022/05/25 07:31:13;;;;;;;0.10;0.10;;;;;;;31.65;22.92;99883.50;5037726;28;20037;-75
2022/05/25 07:33:44;;;;;;;0.10;0.10;;;;;;;32.54;21.35;99887.94;5037390;28;20078;-75
2022/05/25 07:36:11;;;;;;;0.10;0.10;;;;;;;32.97;19.94;99884.78;5056162;28;20059;-74
2022/05/25 07:38:41;;;;;;;0.10;0.10;;;;;;;32.85;20.03;99879.03;5037614;28;20044;-76
2022/05/25 07:41:08;;;;;;;0.10;0.10;;;;;;;31.83;21.31;99885.16;5021534;28;20036;-76
2022/05/25 07:43:34;;;;;;;0.10;0.10;;;;;;;32.70;20.55;99890.03;5036971;28;20024;-76
2022/05/25 07:46:00;;;;;;;0.10;0.10;;;;;;;32.77;19.91;99872.22;5055070;28;20029;-76
2022/05/25 07:48:26;;;;;;;0.10;0.10;;;;;;;33.05;19.54;99885.84;5036949;28;20025;-76
2022/05/25 07:50:52;;;;;;;0.10;0.10;;;;;;;32.37;19.95;99881.38;5037216;28;20035;-76
2022/05/25 07:56:03;;;;;;;0.10;0.10;;;;;;;33.85;18.58;99882.97;5055270;28;20403;-76
2022/05/25 07:58:30;;;;;;;0.10;0.10;;;;;;;33.15;18.37;99878.50;5037325;28;20446;-75
2022/05/25 08:01:02;;;;;;;0.10;0.10;;;;;;;32.71;19.53;99896.59;5036607;28;20037;-76
2022/05/25 08:06:12;;;;;;;0.10;0.10;;;;;;;32.36;19.37;99888.44;5054780;28;20063;-77
2022/05/25 08:08:38;;;;;;;0.10;0.10;;;;;;;32.37;19.60;99901.53;5020141;28;20452;-76
2022/05/25 08:11:16;;;;;;;0.10;0.10;;;;;;;32.58;19.67;99899.97;5036654;28;20037;-76
2022/05/25 08:13:46;;;;;;;0.10;0.10;;;;;;;32.62;19.41;99886.13;5037149;28;20532;-76
2022/05/25 08:16:12;;;;;;;0.10;0.10;;;;;;;31.95;20.34;99894.59;5020584;28;20033;-76
2022/05/25 08:18:38;;;;;;;0.10;0.10;;;;;;;31.80;21.14;99892.75;5036732;28;20037;-76
2022/05/25 08:21:06;;;;;;;0.10;0.10;;;;;;;31.51;20.98;99884.47;5037502;28;20334;-76
2022/05/25 08:23:32;;;;;;;0.10;0.10;;;;;;;31.77;20.72;99902.38;5036823;28;20091;-76
2022/05/25 08:25:57;;;;;;;0.10;0.10;;;;;;;31.97;18.93;99897.75;5036449;28;20057;-75
2022/05/25 08:28:23;;;;;;;0.10;0.10;;;;;;;33.01;18.67;99905.50;5036908;28;20051;-74
2022/05/25 08:30:49;;;;;;;0.10;0.10;;;;;;;32.82;19.55;99908.13;5036199;28;20040;-74
2022/05/25 08:33:20;;;;;;;0.10;0.10;;;;;;;33.13;19.03;99904.16;5036841;28;20036;-75
2022/05/25 08:35:47;;;;;;;0.10;0.10;;;;;;;33.40;18.23;99910.38;5054669;28;20055;-75
2022/05/25 08:38:13;;;;;;;0.10;0.10;;;;;;;32.93;17.95;99907.34;5036602;28;20025;-75
2022/05/25 08:40:40;;;;;;;0.10;0.10;;;;;;;32.64;17.89;99903.63;5036543;28;20055;-75
2022/05/25 08:43:19;;;;;;;0.10;0.10;;;;;;;33.34;17.59;99914.06;5036109;28;20029;-76
2022/05/25 08:46:14;;;;;;;0.10;0.10;;;;;;;33.55;16.86;99911.69;5035950;28;20028;-76
2022/05/25 08:48:41;;;;;;;0.10;0.10;;;;;;;34.11;16.37;99910.69;5054511;28;20029;-76
2022/05/25 08:51:14;;;;;;;0.10;0.10;;;;;;;34.14;16.76;99909.59;5035918;28;20028;-75
2022/05/25 08:53:40;;;;;;;0.10;0.10;;;;;;;34.14;16.74;99915.38;5035729;28;20025;-77
2022/05/25 08:56:15;;;;;;;0.10;0.10;;;;;;;34.48;16.58;99907.31;5035889;28;20464;-76
2022/05/25 08:58:46;;;;;;;0.10;0.10;;;;;;;33.94;17.08;99895.56;5036091;28;20052;-77
2022/05/25 09:01:19;;;;;;;0.10;0.10;;;;;;;35.05;16.60;99910.53;5036159;28;20092;-76
2022/05/25 09:04:08;;;;;;;0.10;0.10;;;;;;;35.49;17.35;99914.31;5036091;28;20033;-76
2022/05/25 09:06:58;;;;;;;0.10;0.10;;;;;;;35.97;16.77;99901.13;5035680;28;20033;-76
2022/05/25 09:09:30;;;;;;;0.10;0.10;;;;;;;35.47;16.82;99902.50;5035667;28;20025;-76
2022/05/25 09:12:03;;;;;;;0.10;0.10;;;;;;;35.52;16.78;99896.63;5035681;28;20025;-76
2022/05/25 09:14:58;;;;;;;0.10;0.10;;;;;;;34.72;17.45;99909.47;5036312;28;20115;-76
2022/05/25 09:17:31;;;;;;;0.10;0.10;;;;;;;34.93;17.20;99904.03;5035779;28;20033;-76
2022/05/25 09:19:59;;;;;;;0.10;0.10;;;;;;;34.05;18.38;99902.06;5036075;28;20032;-76
2022/05/25 09:22:26;;;;;;;0.10;0.10;;;;;;;34.64;18.63;99905.63;5053099;28;20043;-77
2022/05/25 09:24:56;;;;;;;0.10;0.10;;;;;;;34.73;19.51;99901.59;5035911;28;20121;-76
2022/05/25 09:27:29;;;;;;;0.10;0.10;;;;;;;35.58;18.57;99908.16;5031783;28;20084;-76
2022/05/25 09:29:59;;;;;;;0.10;0.10;;;;;;;35.99;18.18;99910.03;5033560;28;20025;-75
2022/05/25 09:32:34;;;;;;;0.10;0.10;;;;;;;35.89;17.00;99901.69;5032151;28;20429;-76
2022/05/25 09:35:13;;;;;;;0.10;0.10;;;;;;;35.59;17.36;99898.16;5032988;28;20021;-76
2022/05/25 09:38:06;;;;;;;0.10;0.10;;;;;;;34.90;19.11;99900.13;5032047;28;20033;-76
2022/05/25 09:40:35;;;;;;;0.10;0.10;;;;;;;34.88;19.11;99902.78;5028453;28;20136;-75
2022/05/25 09:43:04;;;;;;;0.10;0.10;;;;;;;34.16;18.53;99901.22;5032591;28;20065;-76
2022/05/25 09:45:42;;;;;;;0.10;0.10;;;;;;;34.50;18.49;99901.00;5032016;28;20036;-76
2022/05/25 09:48:32;;;;;;;0.10;0.10;;;;;;;34.69;18.27;99901.91;5032125;28;20037;-76
2022/05/25 09:51:22;;;;;;;0.10;0.10;;;;;;;34.34;15.62;99896.88;5021848;28;20037;-76
2022/05/25 09:54:26;;;;;;;0.10;0.10;;;;;;;34.55;14.97;99903.06;5032522;28;20424;-75
2022/05/25 09:57:09;;;;;;;0.10;0.10;;;;;;;34.07;15.41;99899.41;5030035;28;20053;-75
2022/05/25 09:59:55;;;;;;;0.10;0.10;;;;;;;33.88;16.05;99904.22;5031911;28;20167;-79
2022/05/25 10:02:23;;;;;;;0.10;0.10;;;;;;;34.22;16.16;99901.94;5031055;28;20380;-75
2022/05/25 10:04:53;;;;;;;0.10;0.10;;;;;;;33.71;16.43;99898.50;5031825;28;20034;-76
2022/05/25 10:08:03;;;;;;;0.10;0.10;;;;;;;33.17;16.88;99895.25;5035014;28;20110;-76
2022/05/25 10:10:34;;;;;;;0.10;0.10;;;;;;;34.14;16.49;99893.09;4999195;28;20033;-75
2022/05/25 10:13:04;;;;;;;0.10;0.10;;;;;;;34.50;16.92;99901.00;5035468;28;20029;-75
2022/05/25 10:15:36;;;;;;;0.10;0.10;;;;;;;34.86;16.24;99905.44;5035428;28;20030;-75
2022/05/25 10:18:04;;;;;;;0.10;0.10;;;;;;;33.95;17.08;99891.34;5035531;28;20052;-74
2022/05/25 10:20:42;;;;;;;0.10;0.10;;;;;;;34.27;16.82;99895.34;5035803;28;20037;-76
2022/05/25 10:23:25;;;;;;;0.10;0.10;;;;;;;34.93;16.36;99887.50;5035614;28;20033;-76
2022/05/25 10:26:09;;;;;;;0.10;0.10;;;;;;;34.53;15.98;99897.84;5037141;28;20037;-76
2022/05/25 10:28:57;;;;;;;0.10;0.10;;;;;;;35.21;15.83;99892.25;5039293;28;20479;-76
2022/05/25 10:37:10;;;;;;;0.10;0.10;;;;;;;36.12;15.63;99893.53;5056440;28;20071;-76
2022/05/25 10:39:45;;;;;;;0.10;0.10;;;;;;;35.76;15.37;99892.94;5038536;28;20029;-76
2022/05/25 10:42:22;;;;;;;0.10;0.10;;;;;;;35.03;15.90;99885.06;5039072;28;20063;-76
2022/05/25 10:45:18;;;;;;;0.10;0.10;;;;;;;34.96;15.99;99890.66;5038986;28;20028;-75
2022/05/25 10:47:54;;;;;;;0.10;0.10;;;;;;;34.44;16.61;99897.34;5038678;28;20494;-76
2022/05/25 10:50:45;;;;;;;0.10;0.10;;;;;;;34.02;17.08;99885.78;5038364;28;20024;-75
2022/05/25 10:53:22;;;;;;;0.10;0.10;;;;;;;34.33;16.99;99881.66;5038910;28;20032;-76
2022/05/25 10:56:06;;;;;;;0.10;0.10;;;;;;;34.30;17.56;99887.72;5038779;28;20033;-75
2022/05/25 10:59:03;;;;;;;0.10;0.10;;;;;;;35.05;17.56;99887.41;5038914;28;20475;-76
2022/05/25 11:01:35;;;;;;;0.10;0.10;;;;;;;35.02;16.78;99888.50;5001332;28;20047;-75
2022/05/25 11:04:00;;;;;;;;;;;;;;;35.43;15.87;99880.44;5038416;28;20090;-75
2022/05/25 11:06:52;;;;;;;0.10;0.10;;;;;;;35.61;15.82;99886.81;5037873;28;19942;-75
2022/05/25 11:09:24;;;;;;;0.10;0.10;;;;;;;35.35;16.54;99891.03;5037883;28;20031;-76
2022/05/25 11:12:22;;;;;;;0.10;0.10;;;;;;;36.31;15.66;99889.81;5038122;28;20029;-76
2022/05/25 11:15:14;;;;;;;0.10;0.10;;;;;;;36.93;14.95;99887.53;5038545;28;20459;-76
2022/05/25 11:17:59;;;;;;;0.10;0.10;;;;;;;37.27;14.57;99895.59;5037824;28;20039;-76
2022/05/25 11:20:43;;;;;;;0.10;0.10;;;;;;;37.53;14.56;99900.66;5037838;28;20032;-75
2022/05/25 11:23:20;;;;;;;0.10;0.10;;;;;;;37.63;14.42;99901.75;5038009;28;20044;-75
2022/05/25 11:26:05;;;;;;;0.10;0.10;;;;;;;37.45;14.36;99908.47;5038136;28;20048;-75
2022/05/25 11:28:55;;;;;;;0.10;0.10;;;;;;;36.45;14.48;99906.75;5038223;28;20127;-75
2022/05/25 11:31:36;;;;;;;0.10;0.10;;;;;;;36.56;14.51;99888.41;5055840;28;20029;-76
2022/05/25 11:34:11;;;;;;;0.10;0.10;;;;;;;35.92;14.88;99885.38;5038125;28;20083;-76
2022/05/25 11:36:40;;;;;;;0.10;0.10;;;;;;;35.40;15.10;99921.22;5038296;28;20033;-76
2022/05/25 11:39:08;;;;;;;0.10;0.10;;;;;;;35.16;15.32;99910.44;5038127;28;20098;-75
2022/05/25 11:41:38;;;;;;;0.10;0.10;;;;;;;35.61;15.95;99912.84;5037288;28;20029;-76
2022/05/25 11:44:41;;;;;;;0.10;0.10;;;;;;;36.17;16.18;99917.94;5037737;28;20025;-75
2022/05/25 11:47:49;;;;;;;0.10;0.10;;;;;;;36.05;15.09;99925.22;4939407;29;20059;-76
2022/05/25 11:50:15;;;;;;;0.10;0.10;;;;;;;36.29;15.61;99916.44;4958080;28;20397;-74
2022/05/25 11:53:12;;;;;;;0.10;0.10;;;;;;;36.58;15.37;99919.72;5020421;28;20040;-73
2022/05/25 11:55:57;;;;;;;0.10;0.10;;;;;;;36.38;15.22;99918.94;5023962;28;20044;-72
2022/05/25 11:58:51;;;;;;;0.10;0.10;;;;;;;35.33;16.07;99913.16;5036996;28;20025;-73
2022/05/25 12:01:25;;;;;;;0.10;0.10;;;;;;;35.48;16.15;99904.06;5036983;28;20025;-71
2022/05/25 12:04:10;;;;;;;0.10;0.10;;;;;;;35.99;15.61;99921.63;5055122;28;20115;-70
2022/05/25 12:06:54;;;;;;;0.10;0.10;;;;;;;35.33;15.75;99936.28;5037208;28;20021;-73
2022/05/25 12:09:44;;;;;;;0.10;0.10;;;;;;;35.67;14.65;99930.94;5037371;28;20036;-72
2022/05/25 12:12:22;;;;;;;0.10;0.10;;;;;;;35.45;14.66;99936.97;5037297;28;20024;-73
2022/05/25 12:15:09;;;;;;;0.10;0.10;;;;;;;35.74;15.34;99946.88;5036646;28;20032;-74
2022/05/25 12:17:56;;;;;;;0.10;0.10;;;;;;;35.46;15.15;99947.22;5036612;28;20063;-74